createdAt,value
2018-02-05T00:00:07.995Z,-1.9
2018-02-05T00:15:02.938Z,-1.8
2018-02-05T00:30:02.619Z,-1.8
2018-02-05T00:45:02.906Z,-1.8
2018-02-05T01:00:03.303Z,-1.9
2018-02-05T01:15:02.962Z,-1.8
2018-02-05T01:30:06.412Z,-2.1
2018-02-05T01:45:02.824Z,-2.1
2018-02-05T02:00:04.379Z,-2
2018-02-05T02:15:02.426Z,-2.3
2018-02-05T02:30:09.285Z,-2.3
2018-02-05T02:45:04.032Z,-2.2
2018-02-05T03:00:20.398Z,-2.6
2018-02-05T03:15:03.263Z,-2.6
2018-02-05T03:30:02.988Z,-2.6
2018-02-05T03:45:02.365Z,-2.3
2018-02-05T04:00:04.567Z,-2.1
2018-02-05T04:15:02.811Z,-1.8
2018-02-05T04:30:03.186Z,-1.6
2018-02-05T04:45:05.394Z,-1.8
2018-02-05T05:00:05.118Z,-2.1
2018-02-05T05:15:02.443Z,-2.2
2018-02-05T05:30:02.805Z,-2.5
2018-02-05T05:45:03.051Z,-2.9
2018-02-05T06:00:02.460Z,-3.1
2018-02-05T06:15:02.757Z,-3.1
2018-02-05T06:30:03.334Z,-3.2
2018-02-05T06:45:02.613Z,-3.3
2018-02-05T07:00:10.262Z,-3.2
2018-02-05T07:15:02.246Z,-3.1
2018-02-05T07:30:02.634Z,-2.8
2018-02-05T07:45:02.888Z,-2.6
2018-02-05T08:00:02.379Z,-2.2
2018-02-05T08:15:02.639Z,-2
2018-02-05T08:30:03.027Z,-1.6
2018-02-05T08:45:08.837Z,-1.3
2018-02-05T09:00:23.244Z,-0.9
2018-02-05T09:15:02.735Z,-0.6
2018-02-05T09:30:03.155Z,-0.4
2018-02-05T09:45:02.397Z,-0.6
2018-02-05T10:00:02.689Z,-0.6
2018-02-05T10:15:02.928Z,-0.3
2018-02-05T10:30:02.274Z,-0.3
2018-02-05T10:45:02.512Z,-0.2
2018-02-05T11:00:20.497Z,-0.1
2018-02-05T11:15:02.789Z,0
2018-02-05T11:30:03.110Z,0.3
2018-02-05T11:45:02.381Z,1.2
2018-02-05T12:00:02.621Z,1.8
2018-02-05T12:15:02.904Z,2.1
2018-02-05T12:30:02.189Z,2.2
2018-02-05T12:45:17.257Z,2.2
2018-02-05T13:00:03.433Z,2.1
2018-02-05T13:15:02.416Z,2.3
2018-02-05T13:30:02.780Z,2.3
2018-02-05T13:45:03.055Z,2.6
2018-02-05T14:00:02.321Z,2.7
2018-02-05T14:15:02.642Z,2.9
2018-02-05T14:30:02.950Z,2.6
2018-02-05T14:45:03.295Z,2.4
2018-02-05T15:00:03.551Z,2.4
2018-02-05T15:15:02.817Z,2.3
2018-02-05T15:30:03.172Z,2.2
2018-02-05T15:45:02.428Z,1.9
2018-02-05T16:00:02.703Z,1.5
2018-02-05T16:15:02.978Z,1.1
2018-02-05T16:30:02.328Z,0.8
2018-02-05T16:45:02.599Z,0.8
2018-02-05T17:00:02.838Z,0.7
2018-02-05T17:15:03.462Z,0.6
2018-02-05T17:30:08.757Z,0.6
2018-02-05T17:48:12.665Z,0.4
2018-02-05T18:00:33.879Z,0.2
2018-02-05T18:15:04.552Z,-0.1
2018-02-05T18:30:02.258Z,-0.2
2018-02-05T18:45:02.553Z,-0.4
2018-02-05T19:00:02.792Z,-0.8
2018-02-05T19:15:03.107Z,-0.8
2018-02-05T19:30:02.450Z,-0.9
2018-02-05T19:45:02.741Z,-1
2018-02-05T20:00:02.998Z,-0.9
2018-02-05T20:15:02.323Z,-0.9
2018-02-05T20:30:02.681Z,-1
2018-02-05T20:45:02.895Z,-1
2018-02-05T21:00:02.283Z,-1.1
2018-02-05T21:15:02.603Z,-1.1
2018-02-05T21:30:03.009Z,-1.2
2018-02-05T21:45:02.329Z,-1.2
2018-02-05T22:00:02.574Z,-1.3
2018-02-05T22:15:03.274Z,-1.5
2018-02-05T22:30:02.610Z,-1.6
2018-02-05T22:45:03.070Z,-1.7
2018-02-05T23:00:02.331Z,-1.8
2018-02-05T23:15:04.470Z,-1.8
2018-02-05T23:30:08.055Z,-1.9
2018-02-05T23:45:02.301Z,-2.1
